Terminal Aerodrome Forecast
Issued by NWS

Home | Current Version | Previous Version | Text Only | Print | Product List | Glossary On
Versions: 1 2 3 4 5 6 7 8 9 10 11 12 13 14 15 16 17 18 19 20 21 22 23 24 25
000
FTUS45 KLKN 290520
TAFEKO
TAF
KEKO 290520Z 2906/3006 VRB05KT P6SM BKN040 BKN100
     FM290900 22007KT P6SM BKN090 BKN200
     FM291900 23020G30KT P6SM VCSH BKN060 OVC100
     FM300300 24009KT 6SM BLDU VCSH BKN050 OVC100=

USA.gov is the U.S. government's official web portal to all federal, state and local government web resources and services.